sensor_id;sensor_type;location;lat;lon;timestamp;temperature;humidity
62424;DHT22;48463;43.604;3.872;2023-07-09T00:00:53;25.70;97.40
62424;DHT22;48463;43.604;3.872;2023-07-09T00:03:20;25.50;97.40
62424;DHT22;48463;43.604;3.872;2023-07-09T00:05:48;25.40;97.70
62424;DHT22;48463;43.604;3.872;2023-07-09T00:08:25;25.30;98.10
62424;DHT22;48463;43.604;3.872;2023-07-09T00:10:53;25.20;98.10
62424;DHT22;48463;43.604;3.872;2023-07-09T00:13:26;25.20;98.20
62424;DHT22;48463;43.604;3.872;2023-07-09T00:15:55;25.20;98.40
62424;DHT22;48463;43.604;3.872;2023-07-09T00:18:23;25.10;98.50
62424;DHT22;48463;43.604;3.872;2023-07-09T00:20:50;25.10;98.50
62424;DHT22;48463;43.604;3.872;2023-07-09T00:23:15;25.20;98.60
62424;DHT22;48463;43.604;3.872;2023-07-09T00:25:43;25.10;98.60
62424;DHT22;48463;43.604;3.872;2023-07-09T00:28:17;25.00;98.90
62424;DHT22;48463;43.604;3.872;2023-07-09T00:30:47;25.00;98.90
62424;DHT22;48463;43.604;3.872;2023-07-09T00:33:15;25.30;98.40
62424;DHT22;48463;43.604;3.872;2023-07-09T00:35:45;25.30;98.30
62424;DHT22;48463;43.604;3.872;2023-07-09T00:38:20;25.40;98.30
62424;DHT22;48463;43.604;3.872;2023-07-09T00:41:03;25.30;98.50
62424;DHT22;48463;43.604;3.872;2023-07-09T00:43:32;25.10;98.70
62424;DHT22;48463;43.604;3.872;2023-07-09T00:48:50;25.20;98.60
62424;DHT22;48463;43.604;3.872;2023-07-09T00:51:19;25.20;98.60
62424;DHT22;48463;43.604;3.872;2023-07-09T00:53:47;25.00;98.80
62424;DHT22;48463;43.604;3.872;2023-07-09T00:56:18;25.00;98.90
62424;DHT22;48463;43.604;3.872;2023-07-09T00:58:49;25.10;98.80
62424;DHT22;48463;43.604;3.872;2023-07-09T01:01:18;25.20;98.70
62424;DHT22;48463;43.604;3.872;2023-07-09T01:03:52;25.10;98.50
62424;DHT22;48463;43.604;3.872;2023-07-09T01:06:32;25.10;98.70
62424;DHT22;48463;43.604;3.872;2023-07-09T01:09:01;24.90;99.00
62424;DHT22;48463;43.604;3.872;2023-07-09T01:11:34;24.90;99.20
62424;DHT22;48463;43.604;3.872;2023-07-09T01:14:06;24.80;99.30
62424;DHT22;48463;43.604;3.872;2023-07-09T01:16:39;24.70;99.40
62424;DHT22;48463;43.604;3.872;2023-07-09T01:19:06;24.60;99.70
62424;DHT22;48463;43.604;3.872;2023-07-09T01:21:33;24.70;99.60
62424;DHT22;48463;43.604;3.872;2023-07-09T01:24:15;24.80;99.60
62424;DHT22;48463;43.604;3.872;2023-07-09T01:26:41;24.80;99.50
62424;DHT22;48463;43.604;3.872;2023-07-09T01:29:09;24.70;99.60
62424;DHT22;48463;43.604;3.872;2023-07-09T01:31:35;24.80;99.60
62424;DHT22;48463;43.604;3.872;2023-07-09T01:34:02;24.90;99.50
62424;DHT22;48463;43.604;3.872;2023-07-09T01:36:28;25.00;99.30
62424;DHT22;48463;43.604;3.872;2023-07-09T01:38:56;24.90;99.40
62424;DHT22;48463;43.604;3.872;2023-07-09T01:41:24;24.90;99.40
62424;DHT22;48463;43.604;3.872;2023-07-09T01:43:50;24.80;99.50
62424;DHT22;48463;43.604;3.872;2023-07-09T01:46:17;24.80;99.40
62424;DHT22;48463;43.604;3.872;2023-07-09T01:48:42;24.90;99.50
62424;DHT22;48463;43.604;3.872;2023-07-09T01:51:15;25.00;99.10
62424;DHT22;48463;43.604;3.872;2023-07-09T01:53:44;25.00;99.10
62424;DHT22;48463;43.604;3.872;2023-07-09T01:56:10;24.90;99.40
62424;DHT22;48463;43.604;3.872;2023-07-09T01:58:36;24.80;99.40
62424;DHT22;48463;43.604;3.872;2023-07-09T02:01:06;24.50;99.80
62424;DHT22;48463;43.604;3.872;2023-07-09T02:03:32;24.40;99.90
62424;DHT22;48463;43.604;3.872;2023-07-09T02:05:58;24.40;99.90
62424;DHT22;48463;43.604;3.872;2023-07-09T02:08:26;24.40;99.90
62424;DHT22;48463;43.604;3.872;2023-07-09T02:10:51;24.40;99.90
62424;DHT22;48463;43.604;3.872;2023-07-09T02:13:17;24.40;99.90
62424;DHT22;48463;43.604;3.872;2023-07-09T02:15:45;24.30;99.90
62424;DHT22;48463;43.604;3.872;2023-07-09T02:18:11;24.40;99.90
62424;DHT22;48463;43.604;3.872;2023-07-09T02:20:37;24.30;99.90
62424;DHT22;48463;43.604;3.872;2023-07-09T02:23:03;24.40;99.90
62424;DHT22;48463;43.604;3.872;2023-07-09T02:25:30;24.20;99.90
62424;DHT22;48463;43.604;3.872;2023-07-09T02:27:57;24.20;99.90
62424;DHT22;48463;43.604;3.872;2023-07-09T02:30:25;24.10;99.90
62424;DHT22;48463;43.604;3.872;2023-07-09T02:32:50;24.10;99.90
62424;DHT22;48463;43.604;3.872;2023-07-09T02:35:22;24.10;99.90
62424;DHT22;48463;43.604;3.872;2023-07-09T02:37:49;24.00;99.90
62424;DHT22;48463;43.604;3.872;2023-07-09T02:40:15;24.00;99.90
62424;DHT22;48463;43.604;3.872;2023-07-09T02:42:44;23.90;99.90
62424;DHT22;48463;43.604;3.872;2023-07-09T02:45:10;23.90;99.90
62424;DHT22;48463;43.604;3.872;2023-07-09T02:47:36;23.90;99.90
62424;DHT22;48463;43.604;3.872;2023-07-09T02:50:02;24.10;99.90
62424;DHT22;48463;43.604;3.872;2023-07-09T02:52:28;24.00;99.90
62424;DHT22;48463;43.604;3.872;2023-07-09T02:54:54;24.00;99.90
62424;DHT22;48463;43.604;3.872;2023-07-09T02:57:19;24.00;99.90
62424;DHT22;48463;43.604;3.872;2023-07-09T02:59:45;23.90;99.90
62424;DHT22;48463;43.604;3.872;2023-07-09T03:02:11;24.00;99.90
62424;DHT22;48463;43.604;3.872;2023-07-09T03:04:37;24.10;99.90
62424;DHT22;48463;43.604;3.872;2023-07-09T03:07:02;24.00;99.90
62424;DHT22;48463;43.604;3.872;2023-07-09T03:09:28;23.90;99.90
62424;DHT22;48463;43.604;3.872;2023-07-09T03:11:55;23.90;99.90
62424;DHT22;48463;43.604;3.872;2023-07-09T03:14:21;24.00;99.90
62424;DHT22;48463;43.604;3.872;2023-07-09T03:16:46;23.90;99.90
62424;DHT22;48463;43.604;3.872;2023-07-09T03:19:12;23.90;99.90
62424;DHT22;48463;43.604;3.872;2023-07-09T03:21:38;23.90;99.90
62424;DHT22;48463;43.604;3.872;2023-07-09T03:24:07;24.00;99.90
62424;DHT22;48463;43.604;3.872;2023-07-09T03:26:34;23.90;99.90
62424;DHT22;48463;43.604;3.872;2023-07-09T03:29:00;23.80;99.90
62424;DHT22;48463;43.604;3.872;2023-07-09T03:31:26;23.80;99.90
62424;DHT22;48463;43.604;3.872;2023-07-09T03:33:53;23.90;99.90
62424;DHT22;48463;43.604;3.872;2023-07-09T03:36:19;23.80;99.90
62424;DHT22;48463;43.604;3.872;2023-07-09T03:38:45;23.90;99.90
62424;DHT22;48463;43.604;3.872;2023-07-09T03:41:11;23.70;99.90
62424;DHT22;48463;43.604;3.872;2023-07-09T03:43:37;23.70;99.90
62424;DHT22;48463;43.604;3.872;2023-07-09T03:46:03;23.70;99.90
62424;DHT22;48463;43.604;3.872;2023-07-09T03:48:29;23.80;99.90
62424;DHT22;48463;43.604;3.872;2023-07-09T03:50:55;23.80;99.90
62424;DHT22;48463;43.604;3.872;2023-07-09T03:53:21;23.70;99.90
62424;DHT22;48463;43.604;3.872;2023-07-09T03:55:52;23.60;99.90
62424;DHT22;48463;43.604;3.872;2023-07-09T03:58:18;23.70;99.90
62424;DHT22;48463;43.604;3.872;2023-07-09T04:00:43;23.60;99.90
62424;DHT22;48463;43.604;3.872;2023-07-09T04:03:11;23.50;99.90
62424;DHT22;48463;43.604;3.872;2023-07-09T04:05:37;23.50;99.90
62424;DHT22;48463;43.604;3.872;2023-07-09T04:08:04;23.50;99.90
62424;DHT22;48463;43.604;3.872;2023-07-09T04:10:30;23.60;99.90
62424;DHT22;48463;43.604;3.872;2023-07-09T04:12:56;23.60;99.90
62424;DHT22;48463;43.604;3.872;2023-07-09T04:15:24;23.50;99.90
62424;DHT22;48463;43.604;3.872;2023-07-09T04:17:49;23.50;99.90
62424;DHT22;48463;43.604;3.872;2023-07-09T04:20:15;23.50;99.90
62424;DHT22;48463;43.604;3.872;2023-07-09T04:22:41;23.60;99.90
62424;DHT22;48463;43.604;3.872;2023-07-09T04:25:09;23.50;99.90
62424;DHT22;48463;43.604;3.872;2023-07-09T04:27:36;23.50;99.90
62424;DHT22;48463;43.604;3.872;2023-07-09T04:30:09;23.50;99.90
62424;DHT22;48463;43.604;3.872;2023-07-09T04:32:36;23.50;99.90
62424;DHT22;48463;43.604;3.872;2023-07-09T04:35:02;23.50;99.90
62424;DHT22;48463;43.604;3.872;2023-07-09T04:37:30;23.60;99.90
62424;DHT22;48463;43.604;3.872;2023-07-09T04:39:57;23.50;99.90
62424;DHT22;48463;43.604;3.872;2023-07-09T04:42:26;23.60;99.90
62424;DHT22;48463;43.604;3.872;2023-07-09T04:44:52;23.60;99.90
62424;DHT22;48463;43.604;3.872;2023-07-09T04:47:17;23.50;99.90
62424;DHT22;48463;43.604;3.872;2023-07-09T04:49:44;23.60;99.90
62424;DHT22;48463;43.604;3.872;2023-07-09T04:52:10;23.60;99.90
62424;DHT22;48463;43.604;3.872;2023-07-09T04:54:39;23.60;99.90
62424;DHT22;48463;43.604;3.872;2023-07-09T04:57:05;23.70;99.90
62424;DHT22;48463;43.604;3.872;2023-07-09T04:59:32;23.70;99.90
62424;DHT22;48463;43.604;3.872;2023-07-09T05:01:58;23.80;99.90
62424;DHT22;48463;43.604;3.872;2023-07-09T05:04:25;23.80;99.90
62424;DHT22;48463;43.604;3.872;2023-07-09T05:06:51;23.90;99.90
62424;DHT22;48463;43.604;3.872;2023-07-09T05:09:16;23.90;99.90
62424;DHT22;48463;43.604;3.872;2023-07-09T05:11:43;23.90;99.90
62424;DHT22;48463;43.604;3.872;2023-07-09T05:14:11;24.10;99.90
62424;DHT22;48463;43.604;3.872;2023-07-09T05:16:37;24.00;99.90
62424;DHT22;48463;43.604;3.872;2023-07-09T05:19:03;24.00;99.90
62424;DHT22;48463;43.604;3.872;2023-07-09T05:21:28;23.90;99.90
62424;DHT22;48463;43.604;3.872;2023-07-09T05:23:54;24.10;99.90
62424;DHT22;48463;43.604;3.872;2023-07-09T05:26:20;24.10;99.90
62424;DHT22;48463;43.604;3.872;2023-07-09T05:28:45;24.20;99.90
62424;DHT22;48463;43.604;3.872;2023-07-09T05:31:11;24.20;99.90
62424;DHT22;48463;43.604;3.872;2023-07-09T05:33:37;24.30;99.90
62424;DHT22;48463;43.604;3.872;2023-07-09T05:36:04;24.40;99.90
62424;DHT22;48463;43.604;3.872;2023-07-09T05:38:30;24.40;99.90
62424;DHT22;48463;43.604;3.872;2023-07-09T05:41:03;24.50;99.90
62424;DHT22;48463;43.604;3.872;2023-07-09T05:43:30;24.50;99.90
62424;DHT22;48463;43.604;3.872;2023-07-09T05:46:00;24.60;99.90
62424;DHT22;48463;43.604;3.872;2023-07-09T05:48:26;24.60;99.90
62424;DHT22;48463;43.604;3.872;2023-07-09T05:50:53;24.50;99.90
62424;DHT22;48463;43.604;3.872;2023-07-09T05:53:19;24.60;99.90
62424;DHT22;48463;43.604;3.872;2023-07-09T05:55:45;24.70;99.90
62424;DHT22;48463;43.604;3.872;2023-07-09T05:58:11;24.70;99.90
62424;DHT22;48463;43.604;3.872;2023-07-09T06:00:36;24.90;99.90
62424;DHT22;48463;43.604;3.872;2023-07-09T06:03:04;25.00;99.50
62424;DHT22;48463;43.604;3.872;2023-07-09T06:05:34;25.00;99.60
62424;DHT22;48463;43.604;3.872;2023-07-09T06:08:00;25.00;99.60
62424;DHT22;48463;43.604;3.872;2023-07-09T06:10:26;25.20;99.40
62424;DHT22;48463;43.604;3.872;2023-07-09T06:12:51;25.30;99.10
62424;DHT22;48463;43.604;3.872;2023-07-09T06:15:18;25.60;98.80
62424;DHT22;48463;43.604;3.872;2023-07-09T06:17:44;25.80;98.30
62424;DHT22;48463;43.604;3.872;2023-07-09T06:20:10;25.90;98.00
62424;DHT22;48463;43.604;3.872;2023-07-09T06:22:38;26.00;97.90
62424;DHT22;48463;43.604;3.872;2023-07-09T06:25:06;25.90;98.00
62424;DHT22;48463;43.604;3.872;2023-07-09T06:27:31;26.00;97.90
62424;DHT22;48463;43.604;3.872;2023-07-09T06:30:00;26.10;97.70
62424;DHT22;48463;43.604;3.872;2023-07-09T06:32:28;26.30;97.60
62424;DHT22;48463;43.604;3.872;2023-07-09T06:34:56;26.30;97.50
62424;DHT22;48463;43.604;3.872;2023-07-09T06:37:42;26.40;97.40
62424;DHT22;48463;43.604;3.872;2023-07-09T06:40:08;26.50;97.30
62424;DHT22;48463;43.604;3.872;2023-07-09T06:42:35;26.70;97.20
62424;DHT22;48463;43.604;3.872;2023-07-09T06:45:01;26.80;97.00
62424;DHT22;48463;43.604;3.872;2023-07-09T06:47:29;26.80;96.90
62424;DHT22;48463;43.604;3.872;2023-07-09T06:49:55;26.90;96.80
62424;DHT22;48463;43.604;3.872;2023-07-09T06:52:23;26.80;97.00
62424;DHT22;48463;43.604;3.872;2023-07-09T06:54:48;26.90;97.10
62424;DHT22;48463;43.604;3.872;2023-07-09T06:57:14;27.00;96.90
62424;DHT22;48463;43.604;3.872;2023-07-09T06:59:40;27.20;96.70
62424;DHT22;48463;43.604;3.872;2023-07-09T07:02:06;27.30;96.40
62424;DHT22;48463;43.604;3.872;2023-07-09T07:04:31;27.40;96.20
62424;DHT22;48463;43.604;3.872;2023-07-09T07:06:58;27.50;96.00
62424;DHT22;48463;43.604;3.872;2023-07-09T07:09:23;27.60;96.00
62424;DHT22;48463;43.604;3.872;2023-07-09T07:11:50;27.70;95.90
62424;DHT22;48463;43.604;3.872;2023-07-09T07:14:16;27.80;95.80
62424;DHT22;48463;43.604;3.872;2023-07-09T07:16:42;27.80;95.40
62424;DHT22;48463;43.604;3.872;2023-07-09T07:19:07;27.90;95.40
62424;DHT22;48463;43.604;3.872;2023-07-09T07:21:35;28.00;95.30
62424;DHT22;48463;43.604;3.872;2023-07-09T07:24:00;28.10;95.10
62424;DHT22;48463;43.604;3.872;2023-07-09T07:26:28;28.20;94.90
62424;DHT22;48463;43.604;3.872;2023-07-09T07:28:56;28.30;94.60
62424;DHT22;48463;43.604;3.872;2023-07-09T07:31:22;28.30;94.50
62424;DHT22;48463;43.604;3.872;2023-07-09T07:33:50;28.40;94.40
62424;DHT22;48463;43.604;3.872;2023-07-09T07:36:16;28.50;94.40
62424;DHT22;48463;43.604;3.872;2023-07-09T07:38:42;28.60;94.30
62424;DHT22;48463;43.604;3.872;2023-07-09T07:41:07;28.70;94.10
62424;DHT22;48463;43.604;3.872;2023-07-09T07:43:33;28.80;94.00
62424;DHT22;48463;43.604;3.872;2023-07-09T07:45:59;28.90;93.70
62424;DHT22;48463;43.604;3.872;2023-07-09T07:48:25;29.00;93.50
62424;DHT22;48463;43.604;3.872;2023-07-09T07:50:50;28.90;93.40
62424;DHT22;48463;43.604;3.872;2023-07-09T07:53:17;29.00;93.30
62424;DHT22;48463;43.604;3.872;2023-07-09T07:55:43;29.10;93.20
62424;DHT22;48463;43.604;3.872;2023-07-09T07:58:11;29.20;92.90
62424;DHT22;48463;43.604;3.872;2023-07-09T08:00:38;29.30;92.80
62424;DHT22;48463;43.604;3.872;2023-07-09T08:03:06;29.40;92.70
62424;DHT22;48463;43.604;3.872;2023-07-09T08:05:31;29.40;92.40
62424;DHT22;48463;43.604;3.872;2023-07-09T08:07:57;29.50;92.40
62424;DHT22;48463;43.604;3.872;2023-07-09T08:10:28;29.50;92.30
62424;DHT22;48463;43.604;3.872;2023-07-09T08:12:57;29.60;92.30
62424;DHT22;48463;43.604;3.872;2023-07-09T08:15:25;29.60;92.10
62424;DHT22;48463;43.604;3.872;2023-07-09T08:17:52;29.60;91.60
62424;DHT22;48463;43.604;3.872;2023-07-09T08:20:17;29.70;91.70
62424;DHT22;48463;43.604;3.872;2023-07-09T08:22:45;29.80;91.50
62424;DHT22;48463;43.604;3.872;2023-07-09T08:25:12;29.90;91.40
62424;DHT22;48463;43.604;3.872;2023-07-09T08:27:39;30.00;91.10
62424;DHT22;48463;43.604;3.872;2023-07-09T08:30:05;30.00;91.10
62424;DHT22;48463;43.604;3.872;2023-07-09T08:32:31;30.00;91.10
62424;DHT22;48463;43.604;3.872;2023-07-09T08:34:57;30.10;90.90
62424;DHT22;48463;43.604;3.872;2023-07-09T08:37:24;30.10;90.60
62424;DHT22;48463;43.604;3.872;2023-07-09T08:39:49;30.20;90.50
62424;DHT22;48463;43.604;3.872;2023-07-09T08:42:29;30.10;90.60
62424;DHT22;48463;43.604;3.872;2023-07-09T08:45:24;30.20;90.40
62424;DHT22;48463;43.604;3.872;2023-07-09T08:48:15;30.30;90.30
62424;DHT22;48463;43.604;3.872;2023-07-09T08:50:50;30.40;90.30
62424;DHT22;48463;43.604;3.872;2023-07-09T08:53:25;30.40;90.40
62424;DHT22;48463;43.604;3.872;2023-07-09T08:55:55;30.50;90.40
62424;DHT22;48463;43.604;3.872;2023-07-09T08:58:29;30.60;90.40
62424;DHT22;48463;43.604;3.872;2023-07-09T09:01:01;30.60;90.60
62424;DHT22;48463;43.604;3.872;2023-07-09T09:03:47;30.50;90.70
62424;DHT22;48463;43.604;3.872;2023-07-09T09:06:22;30.60;90.70
62424;DHT22;48463;43.604;3.872;2023-07-09T09:08:54;30.50;90.70
62424;DHT22;48463;43.604;3.872;2023-07-09T09:11:32;30.60;90.60
62424;DHT22;48463;43.604;3.872;2023-07-09T09:14:07;30.50;90.70
62424;DHT22;48463;43.604;3.872;2023-07-09T09:16:38;30.70;90.60
62424;DHT22;48463;43.604;3.872;2023-07-09T09:19:30;30.80;90.40
62424;DHT22;48463;43.604;3.872;2023-07-09T09:22:08;30.80;90.40
62424;DHT22;48463;43.604;3.872;2023-07-09T09:24:47;30.90;90.50
62424;DHT22;48463;43.604;3.872;2023-07-09T09:27:16;30.80;90.80
62424;DHT22;48463;43.604;3.872;2023-07-09T09:29:43;30.70;90.80
62424;DHT22;48463;43.604;3.872;2023-07-09T09:32:34;30.80;91.00
62424;DHT22;48463;43.604;3.872;2023-07-09T09:35:12;30.80;91.20
62424;DHT22;48463;43.604;3.872;2023-07-09T09:37:38;30.80;91.20
62424;DHT22;48463;43.604;3.872;2023-07-09T09:40:05;30.90;91.40
62424;DHT22;48463;43.604;3.872;2023-07-09T09:42:32;30.70;91.60
62424;DHT22;48463;43.604;3.872;2023-07-09T09:44:57;30.90;91.90
62424;DHT22;48463;43.604;3.872;2023-07-09T09:47:26;30.90;92.00
62424;DHT22;48463;43.604;3.872;2023-07-09T09:49:54;30.90;92.20
62424;DHT22;48463;43.604;3.872;2023-07-09T09:52:29;30.90;92.50
62424;DHT22;48463;43.604;3.872;2023-07-09T09:55:18;30.80;92.90
62424;DHT22;48463;43.604;3.872;2023-07-09T09:57:49;30.80;93.30
62424;DHT22;48463;43.604;3.872;2023-07-09T10:00:18;30.90;92.60
62424;DHT22;48463;43.604;3.872;2023-07-09T10:02:45;30.90;92.90
62424;DHT22;48463;43.604;3.872;2023-07-09T10:05:13;31.00;92.80
62424;DHT22;48463;43.604;3.872;2023-07-09T10:07:47;31.20;93.00
62424;DHT22;48463;43.604;3.872;2023-07-09T10:10:23;31.20;93.10
62424;DHT22;48463;43.604;3.872;2023-07-09T10:13:03;31.20;93.10
62424;DHT22;48463;43.604;3.872;2023-07-09T10:15:48;31.30;93.10
62424;DHT22;48463;43.604;3.872;2023-07-09T10:21:34;31.20;92.80
62424;DHT22;48463;43.604;3.872;2023-07-09T10:24:25;31.30;92.90
62424;DHT22;48463;43.604;3.872;2023-07-09T10:27:18;31.60;92.60
62424;DHT22;48463;43.604;3.872;2023-07-09T10:30:15;31.70;92.40
62424;DHT22;48463;43.604;3.872;2023-07-09T10:40:41;31.60;92.30
62424;DHT22;48463;43.604;3.872;2023-07-09T10:43:13;31.60;92.30
62424;DHT22;48463;43.604;3.872;2023-07-09T10:45:46;31.40;92.90
62424;DHT22;48463;43.604;3.872;2023-07-09T10:48:13;31.30;93.00
62424;DHT22;48463;43.604;3.872;2023-07-09T10:50:52;31.20;92.90
62424;DHT22;48463;43.604;3.872;2023-07-09T10:53:38;31.10;93.10
62424;DHT22;48463;43.604;3.872;2023-07-09T10:56:12;31.30;93.00
62424;DHT22;48463;43.604;3.872;2023-07-09T10:59:14;31.70;92.90
62424;DHT22;48463;43.604;3.872;2023-07-09T11:01:45;31.80;92.80
62424;DHT22;48463;43.604;3.872;2023-07-09T11:04:43;31.60;92.60
62424;DHT22;48463;43.604;3.872;2023-07-09T11:07:18;31.60;92.80
62424;DHT22;48463;43.604;3.872;2023-07-09T11:09:48;31.70;92.50
62424;DHT22;48463;43.604;3.872;2023-07-09T11:12:27;31.60;92.80
62424;DHT22;48463;43.604;3.872;2023-07-09T11:15:05;31.80;92.60
62424;DHT22;48463;43.604;3.872;2023-07-09T11:17:37;31.90;92.50
62424;DHT22;48463;43.604;3.872;2023-07-09T11:20:24;32.10;92.10
62424;DHT22;48463;43.604;3.872;2023-07-09T11:23:04;32.00;92.00
62424;DHT22;48463;43.604;3.872;2023-07-09T11:25:43;32.00;91.80
62424;DHT22;48463;43.604;3.872;2023-07-09T11:28:11;32.10;91.90
62424;DHT22;48463;43.604;3.872;2023-07-09T11:30:52;32.10;91.10
62424;DHT22;48463;43.604;3.872;2023-07-09T11:33:29;31.80;91.70
62424;DHT22;48463;43.604;3.872;2023-07-09T11:38:43;32.30;91.60
62424;DHT22;48463;43.604;3.872;2023-07-09T11:41:39;32.40;90.60
62424;DHT22;48463;43.604;3.872;2023-07-09T11:44:17;32.50;90.60
62424;DHT22;48463;43.604;3.872;2023-07-09T11:46:51;32.60;90.70
62424;DHT22;48463;43.604;3.872;2023-07-09T11:49:19;32.50;90.80
62424;DHT22;48463;43.604;3.872;2023-07-09T11:51:51;32.60;89.90
62424;DHT22;48463;43.604;3.872;2023-07-09T11:54:18;32.50;90.10
62424;DHT22;48463;43.604;3.872;2023-07-09T11:56:58;32.40;88.20
62424;DHT22;48463;43.604;3.872;2023-07-09T11:59:24;32.30;88.50
62424;DHT22;48463;43.604;3.872;2023-07-09T12:01:50;32.30;88.60
62424;DHT22;48463;43.604;3.872;2023-07-09T12:04:25;32.40;88.70
62424;DHT22;48463;43.604;3.872;2023-07-09T12:06:57;32.10;88.20
62424;DHT22;48463;43.604;3.872;2023-07-09T12:09:31;32.20;87.40
62424;DHT22;48463;43.604;3.872;2023-07-09T12:11:57;32.10;88.00
62424;DHT22;48463;43.604;3.872;2023-07-09T12:14:23;32.40;89.20
62424;DHT22;48463;43.604;3.872;2023-07-09T12:16:51;32.20;88.50
62424;DHT22;48463;43.604;3.872;2023-07-09T12:19:20;32.30;90.20
62424;DHT22;48463;43.604;3.872;2023-07-09T12:21:56;32.00;91.10
62424;DHT22;48463;43.604;3.872;2023-07-09T12:24:28;31.80;91.00
62424;DHT22;48463;43.604;3.872;2023-07-09T12:27:01;31.90;92.30
62424;DHT22;48463;43.604;3.872;2023-07-09T12:29:35;31.80;92.20
62424;DHT22;48463;43.604;3.872;2023-07-09T12:32:12;31.70;92.10
62424;DHT22;48463;43.604;3.872;2023-07-09T12:34:38;31.80;91.80
62424;DHT22;48463;43.604;3.872;2023-07-09T12:37:04;31.90;92.30
62424;DHT22;48463;43.604;3.872;2023-07-09T12:39:32;32.20;91.90
62424;DHT22;48463;43.604;3.872;2023-07-09T12:42:02;32.10;92.20
62424;DHT22;48463;43.604;3.872;2023-07-09T12:44:33;32.30;92.60
62424;DHT22;48463;43.604;3.872;2023-07-09T12:47:00;32.30;92.90
62424;DHT22;48463;43.604;3.872;2023-07-09T12:49:41;32.40;92.70
62424;DHT22;48463;43.604;3.872;2023-07-09T12:52:21;32.20;92.90
62424;DHT22;48463;43.604;3.872;2023-07-09T12:54:58;32.20;93.50
62424;DHT22;48463;43.604;3.872;2023-07-09T12:57:24;32.10;93.60
62424;DHT22;48463;43.604;3.872;2023-07-09T12:59:50;32.40;92.90
62424;DHT22;48463;43.604;3.872;2023-07-09T13:02:23;32.70;92.90
62424;DHT22;48463;43.604;3.872;2023-07-09T13:04:49;32.60;91.50
62424;DHT22;48463;43.604;3.872;2023-07-09T13:09:52;32.60;91.60
62424;DHT22;48463;43.604;3.872;2023-07-09T13:12:19;32.70;92.10
62424;DHT22;48463;43.604;3.872;2023-07-09T13:14:53;32.70;91.90
62424;DHT22;48463;43.604;3.872;2023-07-09T13:17:19;32.60;93.10
62424;DHT22;48463;43.604;3.872;2023-07-09T13:19:44;32.90;92.70
62424;DHT22;48463;43.604;3.872;2023-07-09T13:22:15;32.90;92.80
62424;DHT22;48463;43.604;3.872;2023-07-09T13:24:43;32.70;92.50
62424;DHT22;48463;43.604;3.872;2023-07-09T13:27:12;32.90;92.40
62424;DHT22;48463;43.604;3.872;2023-07-09T13:29:39;32.90;92.90
62424;DHT22;48463;43.604;3.872;2023-07-09T13:32:09;32.80;92.30
62424;DHT22;48463;43.604;3.872;2023-07-09T13:34:35;32.70;92.50
62424;DHT22;48463;43.604;3.872;2023-07-09T13:37:01;32.90;92.20
62424;DHT22;48463;43.604;3.872;2023-07-09T13:39:27;33.00;92.20
62424;DHT22;48463;43.604;3.872;2023-07-09T13:41:53;33.20;91.70
62424;DHT22;48463;43.604;3.872;2023-07-09T13:44:28;33.30;91.60
62424;DHT22;48463;43.604;3.872;2023-07-09T13:46:58;33.00;91.60
62424;DHT22;48463;43.604;3.872;2023-07-09T13:49:26;33.20;91.50
62424;DHT22;48463;43.604;3.872;2023-07-09T13:51:57;33.40;91.50
62424;DHT22;48463;43.604;3.872;2023-07-09T13:54:26;32.60;91.70
62424;DHT22;48463;43.604;3.872;2023-07-09T13:56:52;32.90;91.60
62424;DHT22;48463;43.604;3.872;2023-07-09T13:59:21;33.00;91.50
62424;DHT22;48463;43.604;3.872;2023-07-09T14:01:49;32.90;91.90
62424;DHT22;48463;43.604;3.872;2023-07-09T14:04:17;33.00;91.10
62424;DHT22;48463;43.604;3.872;2023-07-09T14:06:44;32.70;90.90
62424;DHT22;48463;43.604;3.872;2023-07-09T14:09:14;32.90;91.00
62424;DHT22;48463;43.604;3.872;2023-07-09T14:11:48;32.90;90.50
62424;DHT22;48463;43.604;3.872;2023-07-09T14:14:20;33.30;90.10
62424;DHT22;48463;43.604;3.872;2023-07-09T14:16:48;33.40;90.10
62424;DHT22;48463;43.604;3.872;2023-07-09T14:19:21;33.30;90.10
62424;DHT22;48463;43.604;3.872;2023-07-09T14:21:48;33.10;90.00
62424;DHT22;48463;43.604;3.872;2023-07-09T14:26:46;33.10;89.70
62424;DHT22;48463;43.604;3.872;2023-07-09T14:29:12;33.20;89.30
62424;DHT22;48463;43.604;3.872;2023-07-09T14:31:42;33.00;89.30
62424;DHT22;48463;43.604;3.872;2023-07-09T14:34:24;33.30;88.80
62424;DHT22;48463;43.604;3.872;2023-07-09T14:36:53;33.50;90.20
62424;DHT22;48463;43.604;3.872;2023-07-09T14:39:20;33.70;90.30
62424;DHT22;48463;43.604;3.872;2023-07-09T14:41:47;33.50;88.40
62424;DHT22;48463;43.604;3.872;2023-07-09T14:44:30;33.40;89.40
62424;DHT22;48463;43.604;3.872;2023-07-09T14:46:57;33.70;89.70
62424;DHT22;48463;43.604;3.872;2023-07-09T14:49:26;33.60;90.40
62424;DHT22;48463;43.604;3.872;2023-07-09T14:51:54;33.80;89.70
62424;DHT22;48463;43.604;3.872;2023-07-09T14:54:24;34.00;88.10
62424;DHT22;48463;43.604;3.872;2023-07-09T14:56:51;34.10;88.70
62424;DHT22;48463;43.604;3.872;2023-07-09T14:59:17;35.40;88.10
62424;DHT22;48463;43.604;3.872;2023-07-09T15:01:44;36.50;86.40
62424;DHT22;48463;43.604;3.872;2023-07-09T15:06:53;39.40;82.20
62424;DHT22;48463;43.604;3.872;2023-07-09T15:09:21;39.70;79.80
62424;DHT22;48463;43.604;3.872;2023-07-09T15:11:50;40.10;79.00
62424;DHT22;48463;43.604;3.872;2023-07-09T15:14:16;39.40;80.00
62424;DHT22;48463;43.604;3.872;2023-07-09T15:16:46;39.50;80.30
62424;DHT22;48463;43.604;3.872;2023-07-09T15:19:17;38.40;78.70
62424;DHT22;48463;43.604;3.872;2023-07-09T15:21:45;35.40;82.70
62424;DHT22;48463;43.604;3.872;2023-07-09T15:24:29;34.60;85.90
62424;DHT22;48463;43.604;3.872;2023-07-09T15:26:56;34.40;85.70
62424;DHT22;48463;43.604;3.872;2023-07-09T15:29:23;33.80;86.80
62424;DHT22;48463;43.604;3.872;2023-07-09T15:31:49;33.70;87.40
62424;DHT22;48463;43.604;3.872;2023-07-09T15:34:15;33.60;86.50
62424;DHT22;48463;43.604;3.872;2023-07-09T15:36:47;33.80;85.60
62424;DHT22;48463;43.604;3.872;2023-07-09T15:39:15;34.30;84.90
62424;DHT22;48463;43.604;3.872;2023-07-09T15:41:40;34.30;84.90
62424;DHT22;48463;43.604;3.872;2023-07-09T15:44:11;34.00;84.20
62424;DHT22;48463;43.604;3.872;2023-07-09T15:46:39;33.40;85.90
62424;DHT22;48463;43.604;3.872;2023-07-09T15:49:06;33.10;86.70
62424;DHT22;48463;43.604;3.872;2023-07-09T15:51:32;32.70;88.40
62424;DHT22;48463;43.604;3.872;2023-07-09T15:53:59;32.20;87.30
62424;DHT22;48463;43.604;3.872;2023-07-09T15:56:29;32.70;87.90
62424;DHT22;48463;43.604;3.872;2023-07-09T15:58:57;32.90;87.40
62424;DHT22;48463;43.604;3.872;2023-07-09T16:01:24;32.60;87.50
62424;DHT22;48463;43.604;3.872;2023-07-09T16:03:52;32.50;88.70
62424;DHT22;48463;43.604;3.872;2023-07-09T16:06:20;32.20;89.50
62424;DHT22;48463;43.604;3.872;2023-07-09T16:08:46;31.90;89.80